Metar z pełnej godziny Komunikat METAR ze strony awiacja.imgw.pl Metar G00 EPLL METAR EPLL 240500Z 13006KT 3400 BR NSC M02/M03 Q1022 =